createdAt,value
2022-12-27T00:01:16.020Z,101927.53
2022-12-27T00:07:03.128Z,101926.72
2022-12-27T00:12:49.781Z,101929.91
2022-12-27T00:18:36.552Z,101930.31
2022-12-27T00:24:23.193Z,101943.78
2022-12-27T00:30:10.328Z,101955.34
2022-12-27T00:35:58.733Z,101957.75
2022-12-27T00:41:46.405Z,101975.13
2022-12-27T00:47:33.413Z,101969.06
2022-12-27T00:53:19.993Z,101967.66
2022-12-27T00:59:06.759Z,101964.25
2022-12-27T01:04:54.685Z,101954.56
2022-12-27T01:10:41.452Z,101967.09
2022-12-27T01:16:29.359Z,101965.91
2022-12-27T01:22:16.017Z,101966.91
2022-12-27T01:28:03.827Z,101955.63
2022-12-27T01:33:53.539Z,101966.69
2022-12-27T01:39:40.154Z,101968.72
2022-12-27T01:45:27.994Z,101974.41
2022-12-27T01:51:18.429Z,101980.09
2022-12-27T01:57:05.760Z,101988.31
2022-12-27T02:02:53.085Z,101983.75
2022-12-27T02:08:49.142Z,101995.81
2022-12-27T02:14:45.904Z,101996.22
2022-12-27T02:20:39.203Z,102011.97
2022-12-27T02:26:44.675Z,102006.66
2022-12-27T02:33:02.847Z,102008.94
2022-12-27T02:38:52.080Z,102008.50
2022-12-27T02:44:57.375Z,102003.44
2022-12-27T02:51:02.163Z,102006.28
2022-12-27T02:57:13.907Z,102009.53
2022-12-27T03:03:21.344Z,102006.28
2022-12-27T03:09:10.807Z,102007.16
2022-12-27T03:15:40.991Z,102006.88
2022-12-27T03:21:49.441Z,102002.75
2022-12-27T03:27:36.994Z,102006.47
2022-12-27T03:33:27.928Z,101988.97
2022-12-27T03:39:20.382Z,102001.28
2022-12-27T03:45:07.230Z,101996.22
2022-12-27T03:50:54.971Z,102006.31
2022-12-27T03:56:42.684Z,102002.28
2022-12-27T04:02:30.120Z,102003.75
2022-12-27T04:08:35.629Z,101998.69
2022-12-27T04:14:41.269Z,102009.78
2022-12-27T04:20:46.585Z,102005.03
2022-12-27T04:26:52.540Z,101999.53
2022-12-27T04:32:57.883Z,102002.31
2022-12-27T04:38:44.566Z,102001.13
2022-12-27T04:44:45.942Z,101988.75
2022-12-27T04:50:51.777Z,102001.19
2022-12-27T04:56:39.062Z,101988.22
2022-12-27T05:02:25.884Z,101979.50
2022-12-27T05:08:31.599Z,101977.75
2022-12-27T05:14:18.202Z,101971.16
2022-12-27T05:20:04.924Z,101979.78
2022-12-27T05:25:51.437Z,101979.44
2022-12-27T05:31:38.125Z,101982.41
2022-12-27T05:37:25.081Z,101974.56
2022-12-27T05:43:11.677Z,101973.16
2022-12-27T05:48:58.162Z,101982.81
2022-12-27T05:54:44.692Z,101973.97
2022-12-27T06:00:31.951Z,101984.06
2022-12-27T06:06:18.528Z,101998.78
2022-12-27T06:12:05.324Z,101983.97
2022-12-27T06:17:51.794Z,101968.94
2022-12-27T06:23:39.424Z,101971.00
2022-12-27T06:29:26.062Z,101976.91
2022-12-27T06:35:12.818Z,101971.38
2022-12-27T06:41:06.444Z,101968.63
2022-12-27T06:46:52.988Z,101964.75
2022-12-27T06:52:39.677Z,101947.19
2022-12-27T06:58:26.279Z,101947.78
2022-12-27T07:04:12.852Z,101947.81
2022-12-27T07:09:59.407Z,101939.31
2022-12-27T07:15:45.950Z,101927.88
2022-12-27T07:21:32.760Z,101923.88
2022-12-27T07:27:19.307Z,101919.88
2022-12-27T07:33:05.826Z,101906.56
2022-12-27T07:38:52.743Z,101924.88
2022-12-27T07:44:39.436Z,101937.13
2022-12-27T07:50:26.181Z,101929.47
2022-12-27T07:56:17.682Z,101930.28
2022-12-27T08:02:08.901Z,101937.47
2022-12-27T08:07:55.510Z,101956.63
2022-12-27T08:13:42.229Z,101953.66
2022-12-27T08:19:31.693Z,101950.47
2022-12-27T08:25:22.947Z,101946.75
2022-12-27T08:31:10.266Z,101941.63
2022-12-27T08:36:57.336Z,101940.78
2022-12-27T08:42:46.124Z,101934.94
2022-12-27T08:48:33.701Z,101937.88
2022-12-27T08:54:20.366Z,101946.34
2022-12-27T09:00:08.621Z,101948.34
2022-12-27T09:06:06.444Z,101955.72
2022-12-27T09:11:53.965Z,101942.47
2022-12-27T09:17:42.374Z,101945.19
2022-12-27T09:23:29.978Z,101943.84
2022-12-27T09:29:16.572Z,101943.16
2022-12-27T09:35:03.835Z,101945.00
2022-12-27T09:40:54.781Z,101925.22
2022-12-27T09:46:48.489Z,101943.03
2022-12-27T09:52:43.653Z,101933.41
2022-12-27T09:58:51.576Z,101928.13
2022-12-27T10:05:18.063Z,101925.47
2022-12-27T10:10:51.568Z,101932.84
2022-12-27T10:16:48.420Z,101920.31
2022-12-27T10:22:58.947Z,101921.09
2022-12-27T10:29:01.341Z,101903.69
2022-12-27T10:34:52.301Z,101886.78
2022-12-27T10:40:50.669Z,101867.19
2022-12-27T10:46:37.336Z,101870.56
2022-12-27T10:52:24.891Z,101853.41
2022-12-27T10:58:28.980Z,101841.06
2022-12-27T11:04:21.401Z,101836.97
2022-12-27T11:10:28.909Z,101816.81
2022-12-27T11:16:19.027Z,101808.28
2022-12-27T11:22:07.424Z,101796.69
2022-12-27T11:27:57.307Z,101791.06
2022-12-27T11:33:54.767Z,101782.94
2022-12-27T11:39:46.398Z,101787.97
2022-12-27T11:45:35.793Z,101778.31
2022-12-27T11:51:41.192Z,101773.91
2022-12-27T11:57:27.740Z,101763.59
2022-12-27T12:03:27.693Z,101762.28
2022-12-27T12:09:29.969Z,101759.25
2022-12-27T12:15:28.908Z,101727.72
2022-12-27T12:21:17.634Z,101724.31
2022-12-27T12:27:06.340Z,101709.69
2022-12-27T12:32:59.589Z,101689.22
2022-12-27T12:39:09.663Z,101670.41
2022-12-27T12:45:05.384Z,101663.00
2022-12-27T12:51:05.352Z,101649.00
2022-12-27T12:57:10.882Z,101640.03
2022-12-27T13:03:05.243Z,101617.78
2022-12-27T13:09:12.033Z,101587.59
2022-12-27T13:15:03.243Z,101571.09
2022-12-27T13:21:13.202Z,101563.16
2022-12-27T13:27:02.283Z,101549.34
2022-12-27T13:33:05.326Z,101545.91
2022-12-27T13:38:55.523Z,101527.44
2022-12-27T13:45:08.399Z,101519.56
2022-12-27T13:50:56.613Z,101521.19
2022-12-27T13:56:55.753Z,101505.81
2022-12-27T14:02:53.567Z,101511.88
2022-12-27T14:08:46.454Z,101506.31
2022-12-27T14:14:36.315Z,101501.00
2022-12-27T14:20:42.325Z,101506.66
2022-12-27T14:26:47.292Z,101505.84
2022-12-27T14:32:44.016Z,101512.34
2022-12-27T14:38:58.754Z,101501.44
2022-12-27T14:45:00.772Z,101483.34
2022-12-27T14:51:10.974Z,101485.84
2022-12-27T14:57:33.556Z,101478.69
2022-12-27T15:03:20.902Z,101451.06
2022-12-27T15:09:25.051Z,101452.41
2022-12-27T15:15:31.776Z,101447.94
2022-12-27T15:21:42.087Z,101428.78
2022-12-27T15:27:47.832Z,101425.56
2022-12-27T15:33:42.599Z,101428.75
2022-12-27T15:39:33.386Z,101433.75
2022-12-27T15:45:23.133Z,101436.69
2022-12-27T15:51:24.714Z,101434.84
2022-12-27T15:57:24.889Z,101439.97
2022-12-27T16:03:32.752Z,101434.84
2022-12-27T16:09:26.344Z,101416.53
2022-12-27T16:15:32.058Z,101422.00
2022-12-27T16:21:23.038Z,101419.91
2022-12-27T16:27:21.816Z,101408.78
2022-12-27T16:33:29.737Z,101391.75
2022-12-27T16:39:17.033Z,101390.72
2022-12-27T16:45:23.573Z,101387.50
2022-12-27T16:51:15.541Z,101378.50
2022-12-27T16:57:31.522Z,101362.06
2022-12-27T17:03:20.855Z,101357.22
2022-12-27T17:09:07.846Z,101356.47
2022-12-27T17:14:57.590Z,101347.22
2022-12-27T17:20:44.481Z,101344.59
2022-12-27T17:26:49.498Z,101332.41
2022-12-27T17:32:36.120Z,101318.72
2022-12-27T17:38:49.551Z,101306.78
2022-12-27T17:44:39.231Z,101300.72
2022-12-27T17:50:26.479Z,101301.03
2022-12-27T17:56:36.127Z,101304.75
2022-12-27T18:02:29.546Z,101301.97
2022-12-27T18:08:18.906Z,101293.00
2022-12-27T18:14:06.222Z,101279.16
2022-12-27T18:19:53.733Z,101272.00
2022-12-27T18:25:56.211Z,101262.69
2022-12-27T18:31:46.088Z,101264.28
2022-12-27T18:37:36.353Z,101249.88
2022-12-27T18:43:22.970Z,101249.16
2022-12-27T18:49:25.508Z,101240.72
2022-12-27T18:55:20.985Z,101218.16
2022-12-27T19:01:21.076Z,101206.84
2022-12-27T19:07:12.302Z,101199.53
2022-12-27T19:12:59.557Z,101189.91
2022-12-27T19:18:49.661Z,101185.44
2022-12-27T19:24:36.512Z,101170.94
2022-12-27T19:30:39.619Z,101157.41
2022-12-27T19:36:31.696Z,101147.94
2022-12-27T19:42:21.485Z,101141.91
2022-12-27T19:48:08.244Z,101114.06
2022-12-27T19:53:58.019Z,101097.19
2022-12-27T19:59:45.013Z,101086.28
2022-12-27T20:06:13.026Z,101061.50
2022-12-27T20:11:38.578Z,101037.44
2022-12-27T20:17:25.186Z,101044.06
2022-12-27T20:23:12.115Z,101036.16
2022-12-27T20:28:59.551Z,101016.34
2022-12-27T20:34:46.808Z,101035.41
2022-12-27T20:40:33.399Z,101007.94
2022-12-27T20:46:20.166Z,100962.22
2022-12-27T20:52:06.798Z,100967.75
2022-12-27T20:57:53.566Z,100969.91
2022-12-27T21:03:40.461Z,100957.72
2022-12-27T21:09:27.703Z,100960.63
2022-12-27T21:15:14.364Z,100924.13
2022-12-27T21:21:05.568Z,100932.31
2022-12-27T21:26:56.361Z,100926.22
2022-12-27T21:32:43.293Z,100917.53
2022-12-27T21:38:30.274Z,100901.94
2022-12-27T21:44:16.931Z,100891.63
2022-12-27T21:50:03.624Z,100882.13
2022-12-27T21:56:01.105Z,100878.47
2022-12-27T22:01:50.328Z,100863.13
2022-12-27T22:10:08.928Z,100871.59
2022-12-27T22:15:59.482Z,100849.91
2022-12-27T22:21:46.235Z,100843.06
2022-12-27T22:27:32.938Z,100844.69
2022-12-27T22:33:22.407Z,100831.44
2022-12-27T22:39:09.605Z,100820.34
2022-12-27T22:44:56.227Z,100822.16
2022-12-27T22:50:43.078Z,100801.31
2022-12-27T22:56:33.512Z,100791.75
2022-12-27T23:02:20.221Z,100791.22
2022-12-27T23:08:07.239Z,100776.88
2022-12-27T23:13:57.285Z,100768.97
2022-12-27T23:19:43.960Z,100770.00
2022-12-27T23:25:30.618Z,100754.38
2022-12-27T23:31:18.158Z,100747.22
2022-12-27T23:37:05.166Z,100747.69
2022-12-27T23:42:51.708Z,100755.03
2022-12-27T23:48:38.831Z,100748.41
2022-12-27T23:54:25.547Z,100745.19
